createdAt,value
2023-02-02T00:04:21.400Z,5.80
2023-02-02T00:14:27.635Z,5.80
2023-02-02T00:24:33.571Z,5.40
2023-02-02T00:34:39.393Z,4.90
2023-02-02T00:45:03.056Z,3.60
2023-02-02T00:55:11.247Z,4.00
2023-02-02T01:05:17.417Z,5.10
2023-02-02T01:15:23.604Z,4.90
2023-02-02T01:25:30.620Z,5.10
2023-02-02T01:45:40.923Z,4.60
2023-02-02T01:55:48.500Z,3.40
2023-02-02T02:05:58.155Z,4.20
2023-02-02T02:16:27.849Z,3.90
2023-02-02T02:27:04.090Z,5.00
2023-02-02T02:37:18.397Z,3.90
2023-02-02T02:47:25.266Z,3.10
2023-02-02T03:07:56.874Z,4.60
2023-02-02T03:18:02.857Z,4.40
2023-02-02T03:28:10.014Z,4.20
2023-02-02T03:38:15.875Z,4.20
2023-02-02T03:48:21.669Z,3.80
2023-02-02T03:58:27.756Z,3.30
2023-02-02T04:08:35.060Z,2.80
2023-02-02T04:18:41.089Z,2.60
2023-02-02T04:28:47.144Z,2.40
2023-02-02T04:38:53.935Z,2.60
2023-02-02T04:48:59.736Z,2.40
2023-02-02T04:59:05.678Z,2.00
2023-02-02T05:09:11.420Z,3.20
2023-02-02T05:19:17.210Z,3.50
2023-02-02T05:29:22.973Z,3.10
2023-02-02T05:39:28.855Z,2.90
2023-02-02T05:49:34.731Z,3.00
2023-02-02T05:59:40.567Z,1.80
2023-02-02T06:09:46.405Z,2.90
2023-02-02T06:19:52.054Z,3.40
2023-02-02T06:29:57.946Z,2.30
2023-02-02T06:40:03.673Z,4.20
2023-02-02T06:50:10.620Z,3.20
2023-02-02T07:00:19.725Z,2.10
2023-02-02T07:11:14.414Z,3.80
2023-02-02T07:20:51.961Z,3.20
2023-02-02T07:30:57.797Z,4.40
2023-02-02T07:41:04.970Z,3.30
2023-02-02T07:51:13.022Z,2.40
2023-02-02T08:01:20.478Z,3.60
2023-02-02T08:11:27.838Z,2.40
2023-02-02T08:21:35.518Z,3.10
2023-02-02T08:31:42.866Z,2.10
2023-02-02T08:41:48.596Z,1.20
2023-02-02T08:51:55.055Z,1.10
2023-02-02T09:02:00.886Z,1.50
2023-02-02T09:12:07.317Z,2.60
2023-02-02T09:22:13.231Z,2.50
2023-02-02T09:32:18.943Z,2.90
2023-02-02T09:42:40.815Z,3.00
2023-02-02T09:52:51.670Z,3.10
2023-02-02T10:03:01.141Z,2.80
2023-02-02T10:13:16.248Z,2.30
2023-02-02T10:23:27.425Z,2.10
2023-02-02T10:33:39.263Z,1.40
2023-02-02T10:44:07.409Z,1.10
2023-02-02T10:54:50.082Z,0.50
2023-02-02T11:05:18.948Z,0.80
2023-02-02T11:15:31.025Z,1.00
2023-02-02T11:25:39.698Z,1.60
2023-02-02T11:35:55.739Z,1.60
2023-02-02T11:46:04.483Z,2.50
2023-02-02T11:56:19.809Z,2.70
2023-02-02T12:06:27.926Z,2.20
2023-02-02T12:16:53.846Z,2.90
2023-02-02T12:27:11.363Z,2.80
2023-02-02T12:37:26.792Z,2.30
2023-02-02T12:47:39.789Z,2.10
2023-02-02T12:58:01.823Z,2.60
2023-02-02T13:08:11.753Z,2.50
2023-02-02T13:18:21.962Z,2.90
2023-02-02T13:28:42.878Z,1.40
2023-02-02T13:38:49.575Z,1.70
2023-02-02T13:49:04.646Z,1.70
2023-02-02T13:59:20.831Z,2.70
2023-02-02T14:09:30.818Z,2.30
2023-02-02T14:19:55.152Z,1.30
2023-02-02T14:30:21.599Z,2.60
2023-02-02T14:40:47.256Z,1.50
2023-02-02T14:50:55.890Z,2.00
2023-02-02T15:01:12.011Z,0.90
2023-02-02T15:11:29.964Z,0.90
2023-02-02T15:21:39.540Z,1.50
2023-02-02T15:31:49.780Z,2.00
2023-02-02T15:42:10.758Z,2.30
2023-02-02T15:52:22.876Z,2.90
2023-02-02T16:02:37.413Z,3.20
2023-02-02T16:12:43.390Z,3.40
2023-02-02T16:22:51.307Z,3.90
2023-02-02T16:32:57.250Z,3.40
2023-02-02T16:43:17.662Z,3.40
2023-02-02T16:53:26.020Z,3.60
2023-02-02T17:03:35.281Z,4.40
2023-02-02T17:13:42.972Z,3.60
2023-02-02T17:23:51.323Z,4.80
2023-02-02T17:33:57.048Z,4.30
2023-02-02T17:44:04.927Z,4.20
2023-02-02T17:54:14.459Z,3.90
2023-02-02T18:04:20.314Z,3.80
2023-02-02T18:14:26.520Z,4.70
2023-02-02T18:24:32.285Z,5.10
2023-02-02T18:34:38.201Z,5.50
2023-02-02T18:44:43.992Z,4.40
2023-02-02T18:54:51.033Z,4.10
2023-02-02T19:05:13.972Z,6.10
2023-02-02T19:15:19.960Z,4.90
2023-02-02T19:25:26.126Z,5.10
2023-02-02T19:35:32.144Z,5.40
2023-02-02T19:45:39.766Z,4.50
2023-02-02T19:55:45.590Z,5.90
2023-02-02T20:05:52.601Z,5.00
2023-02-02T20:16:03.909Z,4.50
2023-02-02T20:26:24.235Z,4.90
2023-02-02T20:36:41.051Z,3.70
2023-02-02T20:46:46.832Z,3.10
2023-02-02T20:56:54.317Z,3.50
2023-02-02T21:07:00.818Z,3.20
2023-02-02T21:17:14.832Z,1.60
2023-02-02T21:27:21.411Z,1.50
2023-02-02T21:37:27.766Z,3.50
2023-02-02T21:47:36.488Z,3.10
2023-02-02T21:57:43.419Z,4.60
2023-02-02T22:07:53.381Z,3.20
2023-02-02T22:17:59.287Z,4.60
2023-02-02T22:28:14.602Z,4.60
2023-02-02T22:38:22.597Z,4.10
2023-02-02T22:48:28.664Z,3.10
2023-02-02T22:58:34.523Z,2.70
2023-02-02T23:08:40.629Z,2.60
2023-02-02T23:18:46.518Z,1.90
2023-02-02T23:28:52.452Z,1.40
2023-02-02T23:38:58.624Z,2.00
2023-02-02T23:49:04.884Z,1.30
2023-02-02T23:59:10.804Z,1.00
